Latest Coastal Weather Observations for Stenhouse Bay

IDS60701

Issued at 12:35 am CST Thursday 31 July 2014 (issued every 10 minutes, with the page automatically refreshed every 10 minutes)

About coastal observations | Map of coastal stations | Coastal observations for SA | Marine services | Other Formats
Station Details ID: 022049 Name: STENHOUSE BAY Lat: -35.28 Lon: 136.94 Height: 42.0 m
Data from the previous 72 hours. | See also: Recent months at Stenhouse Bay
Date/Time
CST
Temp

°C
Wind Pressure Rain
since 9am
mm
Weather Cloud Vis
km
Sea
Height
m
Swell
Dir
 
Speed
knots
Gust
knots
hPa Trend Height
m
Period
s
Dir
31/12:30am 14.2 NW 16 24 1008.4 - 0.0 - - - - - - -
31/12:00am 14.2 NW 17 23 1008.9 - 0.0 - - - - - - -
 
Date/Time
CST
Temp

°C
Wind Pressure Rain
since 9am
mm
Weather Cloud Vis
km
Sea
Height
m
Swell
Dir
 
Speed
knots
Gust
knots
hPa Trend Height
m
Period
s
Dir
30/11:30pm 13.9 NW 17 23 1009.3 - 0.0 - - - - - - -
30/11:00pm 14.0 NW 17 24 1009.7 - 0.0 - - - - - - -
30/10:30pm 14.0 NW 15 22 1010.3 - 0.0 - - - - - - -
30/10:00pm 14.2 NW 15 22 1010.8 - 0.0 - - - - - - -
30/09:30pm 14.5 NW 16 24 1011.1 - 0.0 - - - - - - -
30/09:00pm 14.7 NW 17 25 1011.4 - 0.0 - - - - - - -
30/08:30pm 14.8 NW 16 25 1011.7 - 0.0 - - - - - - -
30/08:00pm 15.2 NW 16 23 1012.1 - 0.0 - - - - - - -
30/07:30pm 15.4 NW 18 25 1012.2 - 0.0 - - - - - - -
30/07:00pm 15.2 NW 17 24 1012.3 - 0.0 - - - - - - -
30/06:30pm 15.1 NW 15 20 1012.4 - 0.0 - - - - - - -
30/06:00pm 15.0 NW 15 22 1012.5 - 0.0 - - - - - - -
30/05:30pm 14.9 NNW 15 23 1012.3 - 0.0 - - - - - - -
30/05:11pm 15.4 NNW 16 26 1012.4 - 0.0 - - - - - - -
30/05:00pm 15.8 NNW 15 21 1012.4 - 0.0 - - - - - - -
30/04:30pm 16.4 NW 19 25 1012.5 - 0.0 - - - - - - -
30/04:00pm 16.8 NW 19 26 1012.5 - 0.0 - - - - - - -
30/03:30pm 17.1 NW 19 27 1012.8 - 0.0 - - - - - - -
30/03:00pm 17.9 NW 15 22 1013.1 - 0.0 - - - - - - -
30/02:30pm 17.9 NW 17 24 1013.3 - 0.0 - - - - - - -
30/02:00pm 17.8 NNW 17 25 1013.5 - 0.0 - - - - - - -
30/01:30pm 17.7 NW 17 25 1013.9 - 0.0 - - - - - - -
30/01:00pm 17.4 NW 17 26 1014.4 - 0.0 - - - - - - -
30/12:30pm 17.5 NW 15 23 1015.1 - 0.0 - - - - - - -
30/12:00pm 17.2 NW 16 22 1015.6 - 0.0 - - - - - - -
30/11:30am 17.3 WNW 14 22 1016.2 - 0.0 - - - - - - -
30/11:00am 16.7 WNW 17 24 1016.6 - 0.0 - - - - - - -
30/10:30am 16.8 WNW 15 23 1016.7 - 0.0 - - - - - - -
30/10:00am 16.2 WNW 14 25 1016.9 - 0.0 - - - - - - -
30/09:30am 15.1 WNW 13 19 1016.9 - 0.0 - - - - - - -
30/09:00am 15.3 NW 13 19 1016.9 - 1.6 - - - - - - -
30/08:30am 14.2 NW 11 16 1016.9 - 1.6 - - - - - - -
30/08:00am 14.1 NW 12 16 1016.7 - 1.6 - - - - - - -
30/07:30am 13.8 NW 12 18 1016.6 - 1.6 - - - - - - -
30/07:00am 13.6 WNW 10 15 1016.5 - 1.6 - - - - - - -
30/06:30am 14.0 WNW 11 18 1016.5 - 1.6 - - - - - - -
30/06:00am 14.2 NW 10 17 1016.2 - 1.2 - - - - - - -
30/05:30am 14.4 WNW 10 14 1016.1 - 1.2 - - - - - - -
30/05:00am 14.3 WNW 12 19 1015.8 - 1.2 - - - - - - -
30/04:30am 14.4 NW 14 19 1015.8 - 1.2 - - - - - - -
30/04:00am 14.4 NW 12 18 1015.8 - 1.2 - - - - - - -
30/03:30am 14.4 NW 11 15 1016.0 - 1.2 - - - - - - -
30/03:00am 14.8 WNW 11 17 1016.3 - 1.2 - - - - - - -
30/02:30am 15.0 WNW 12 17 1016.5 - 1.2 - - - - - - -
30/02:00am 15.1 WNW 13 18 1016.7 - 1.2 - - - - - - -
30/01:30am 15.0 WNW 12 18 1016.8 - 1.2 - - - - - - -
30/01:00am 15.1 WNW 14 19 1017.0 - 1.2 - - - - - - -
30/12:30am 14.9 WNW 12 17 1017.0 - 1.2 - - - - - - -
30/12:00am 14.9 WNW 12 18 1017.2 - 1.2 - - - - - - -
 
Date/Time
CST
Temp

°C
Wind Pressure Rain
since 9am
mm
Weather Cloud Vis
km
Sea
Height
m
Swell
Dir
 
Speed
knots
Gust
knots
hPa Trend Height
m
Period
s
Dir
29/11:30pm 15.1 W 13 19 1017.2 - 1.2 - - - - - - -
29/11:00pm 15.2 WNW 13 21 1017.2 - 1.2 - - - - - - -
29/10:30pm 15.2 WNW 16 26 1017.4 - 1.2 - - - - - - -
29/10:23pm 15.2 WNW 15 26 1017.3 - 1.2 - - - - - - -
29/10:00pm 15.0 WNW 13 22 1017.3 - 1.2 - - - - - - -
29/09:30pm 14.6 WNW 11 18 1017.1 - 1.2 - - - - - - -
29/09:00pm 14.4 W 13 19 1017.0 - 1.2 Recent precip. - - - - - -
29/08:30pm 14.5 WNW 12 18 1016.9 - 1.2 - - - - - - -
29/08:03pm 14.1 W 15 26 1016.8 - 0.8 - - - - - - -
29/08:00pm 15.0 WNW 15 22 1016.8 - 0.8 - - - - - - -
29/07:30pm 14.9 WNW 15 21 1016.3 - 0.8 - - - - - - -
29/07:00pm 14.7 WNW 13 19 1016.1 - 0.8 - - - - - - -
29/06:30pm 14.9 WNW 14 20 1015.8 - 0.8 - - - - - - -
29/06:00pm 14.9 WNW 14 19 1015.6 - 0.6 - - - - - - -
29/05:30pm 14.9 W 12 18 1015.4 - 0.6 - - - - - - -
29/05:00pm 14.6 WNW 16 24 1015.2 - 0.6 - - - - - - -
29/04:30pm 14.0 WNW 17 28 1015.0 - 0.6 - - - - - - -
29/04:00pm 14.9 WNW 17 27 1014.8 - 0.2 - - - - - - -
29/03:30pm 14.5 W 18 29 1014.4 - 0.2 - - - - - - -
29/03:00pm 16.3 WNW 18 28 1014.3 - 0.2 - - - - - - -
29/02:30pm 17.1 WNW 20 30 1014.3 - 0.2 - - - - - - -
29/02:26pm 17.3 WNW 20 30 1014.2 - 0.2 - - - - - - -
29/02:00pm 17.4 W 20 30 1014.1 - 0.2 - - - - - - -
29/01:30pm 17.6 W 22 32 1013.9 - 0.2 - - - - - - -
29/01:00pm 17.2 WNW 18 28 1014.0 - 0.2 - - - - - - -
29/12:30pm 17.1 WNW 20 34 1014.3 - 0.2 - - - - - - -
29/12:23pm 17.6 WNW 19 30 1014.3 - 0.2 - - - - - - -
29/12:00pm 17.5 WNW 19 28 1014.5 - 0.2 - - - - - - -
29/11:32am 17.3 WNW 20 31 1014.5 - 0.2 - - - - - - -
29/11:30am 17.4 WNW 21 31 1014.5 - 0.2 - - - - - - -
29/11:00am 16.9 WNW 22 32 1014.7 - 0.2 - - - - - - -
29/10:32am 16.1 WNW 17 28 1014.7 - 0.2 - - - - - - -
29/10:30am 16.0 WNW 17 26 1014.8 - 0.2 - - - - - - -
29/10:00am 15.4 WNW 16 26 1014.8 - 0.2 - - - - - - -
29/09:53am 15.1 WNW 15 26 1014.9 - 0.2 - - - - - - -
29/09:30am 14.6 WNW 14 22 1014.7 - 0.2 - - - - - - -
29/09:00am 13.5 W 16 23 1014.7 - 1.8 Rain - - - - - -
29/08:42am 14.8 W 17 28 1014.8 - 0.6 - - - - - - -
29/08:30am 14.9 NW 14 19 1014.2 - 0.0 - - - - - - -
29/08:00am 15.3 NW 17 27 1014.2 - 0.0 - - - - - - -
29/07:56am 15.2 NW 16 27 1014.2 - 0.0 - - - - - - -
29/07:30am 15.0 WNW 15 24 1013.9 - 0.0 - - - - - - -
29/07:00am 14.6 NW 14 19 1013.6 - 0.0 - - - - - - -
29/06:30am 14.6 WNW 13 19 1013.6 - 0.0 - - - - - - -
29/06:00am 14.4 NW 15 22 1013.4 - 0.0 - - - - - - -
29/05:37am 14.5 NW 16 28 1013.1 - 0.0 - - - - - - -
29/05:30am 14.5 NW 15 21 1013.0 - 0.0 - - - - - - -
29/05:00am 14.4 NW 14 23 1012.8 - 0.0 - - - - - - -
29/04:30am 14.2 WNW 14 20 1013.2 - 0.0 - - - - - - -
29/04:00am 14.1 NW 16 22 1013.2 - 0.0 - - - - - - -
29/03:30am 13.9 NW 16 24 1012.9 - 0.0 - - - - - - -
29/03:00am 14.0 NW 14 20 1013.0 - 0.0 - - - - - - -
29/02:30am 14.2 NW 14 20 1013.3 - 0.0 - - - - - - -
29/02:00am 14.2 NW 14 20 1013.5 - 0.0 - - - - - - -
29/01:30am 14.0 NW 12 19 1013.6 - 0.0 - - - - - - -
29/01:00am 14.0 NW 13 20 1013.9 - 0.0 - - - - - - -
29/12:30am 14.1 NW 15 21 1014.3 - 0.0 - - - - - - -
29/12:00am 14.0 NW 16 25 1014.3 - 0.0 - - - - - - -
 
Date/Time
CST
Temp

°C
Wind Pressure Rain
since 9am
mm
Weather Cloud Vis
km
Sea
Height
m
Swell
Dir
 
Speed
knots
Gust
knots
hPa Trend Height
m
Period
s
Dir
28/11:55pm 14.0 NW 15 25 1014.3 - 0.0 - - - - - - -
28/11:30pm 13.5 NW 14 20 1014.4 - 0.0 - - - - - - -
28/11:00pm 13.4 NW 13 19 1014.8 - 0.0 - - - - - - -
28/10:30pm 13.5 NNW 14 19 1015.0 - 0.0 - - - - - - -
28/10:00pm 13.6 NNW 15 20 1015.0 - 0.0 - - - - - - -
28/09:30pm 13.8 NW 14 20 1015.2 - 0.0 - - - - - - -
28/09:00pm 14.2 NW 14 21 1015.3 - 0.0 - - - - - - -
28/08:30pm 14.3 NW 14 21 1015.2 - 0.0 - - - - - - -
28/08:00pm 14.5 NW 16 21 1015.1 - 0.0 - - - - - - -
28/07:30pm 14.7 NW 16 22 1015.0 - 0.0 - - - - - - -
28/07:00pm 14.7 NW 16 23 1014.8 - 0.0 - - - - - - -
28/06:30pm 14.3 NW 11 16 1014.7 - 0.0 - - - - - - -
28/06:00pm 14.3 NW 11 15 1014.4 - 0.0 - - - - - - -
28/05:30pm 14.5 NW 10 13 1014.4 - 0.0 - - - - - - -
28/05:00pm 15.6 NW 10 13 1014.4 - 0.0 - - - - - - -
28/04:30pm 16.2 NW 11 17 1014.4 - 0.0 - - - - - - -
28/04:00pm 16.6 NW 11 16 1014.6 - 0.0 - - - - - - -
28/03:30pm 16.5 NW 13 20 1014.5 - 0.0 - - - - - - -
28/03:00pm 16.6 NW 12 20 1014.5 - 0.0 - - - - - - -
28/02:30pm 16.8 NNW 13 19 1014.4 - 0.0 - - - - - - -
28/02:00pm 16.7 NW 16 22 1014.6 - 0.0 - - - - - - -
28/01:30pm 16.8 NW 15 20 1015.1 - 0.0 - - - - - - -
28/01:00pm 16.6 NW 17 22 1015.6 - 0.0 - - - - - - -
28/12:30pm 16.5 WNW 15 23 1016.1 - 0.0 - - - - - - -
28/12:00pm 16.4 NW 16 21 1016.6 - 0.0 - - - - - - -
28/11:30am 16.6 NW 14 20 1016.7 - 0.0 - - - - - - -
28/11:00am 16.1 NW 15 20 1017.0 - 0.0 - - - - - - -
28/10:30am 15.8 NW 15 21 1017.0 - 0.0 - - - - - - -
28/10:00am 15.2 NW 15 20 1017.2 - 0.0 - - - - - - -
28/09:30am 14.6 NW 13 18 1017.4 - 0.0 - - - - - - -
28/09:00am 13.8 NW 11 17 1017.4 - 0.2 - - - - - - -
28/08:30am 12.7 NW 9 12 1017.3 - 0.2 - - - - - - -
28/08:00am 12.0 NW 8 11 1017.1 - 0.2 - - - - - - -
28/07:30am 11.7 NW 8 10 1017.0 - 0.2 - - - - - - -
28/07:00am 11.9 NW 9 11 1016.6 - 0.2 - - - - - - -
28/06:30am 11.6 NW 7 8 1016.4 - 0.2 - - - - - - -
28/06:00am 10.9 NNW 5 6 1016.3 - 0.2 - - - - - - -
28/05:30am 11.2 NW 5 6 1016.2 - 0.2 - - - - - - -
28/05:00am 10.8 NNW 4 5 1016.3 - 0.2 - - - - - - -
28/04:30am 11.2 N 4 4 1016.6 - 0.2 - - - - - - -
28/04:00am 12.5 WNW 6 9 1016.6 - 0.2 - - - - - - -
28/03:30am 12.9 WNW 7 9 1016.6 - 0.2 - - - - - - -
28/03:00am 12.9 WNW 6 8 1016.5 - 0.0 - - - - - - -
28/02:30am 13.2 WNW 7 10 1016.7 - 0.0 - - - - - - -
28/02:00am 12.9 WNW 7 10 1016.9 - 0.0 - - - - - - -
28/01:30am 13.2 W 9 11 1016.7 - 0.0 - - - - - - -
28/01:00am 13.2 WNW 7 10 1016.8 - 0.0 - - - - - - -

Other Formats:

Comma delimited format used in spreadsheet applications
http://www.bom.gov.au/fwo/IDS60701/IDS60701.95806.axf

JavaScript Object Notation format (JSON) in row-major order
http://www.bom.gov.au/fwo/IDS60701/IDS60701.95806.json